Time;durP1;ratioP1;P1;durP2;ratioP2;P2;SDS_P1;SDS_P2;PMS_P1;PMS_P2;Temp;Humidity;BMP_temperature;BMP_pressure;BME280_temperature;BME280_humidity;BME280_pressure;Samples;Min_cycle;Max_cycle;Signal;HPM_P1;HPM_P2
2023/08/21 00:00:50;;;;;;;7.55;6.95;;;;;;;;;;5120626;28;20231;-66
2023/08/21 00:03:18;;;;;;;7.78;7.07;;;;;;;;;;5120602;28;20248;-66
2023/08/21 00:05:45;;;;;;;7.47;6.82;;;;;;;;;;5120858;28;20214;-66
2023/08/21 00:08:13;;;;;;;6.78;6.28;;;;;;;;;;5121077;28;20531;-66
2023/08/21 00:10:40;;;;;;;7.20;6.60;;;;;;;;;;5120963;28;20203;-66
2023/08/21 00:13:08;;;;;;;7.25;6.55;;;;;;;;;;5120651;28;20498;-66
2023/08/21 00:15:39;;;;;;;6.90;6.30;;;;;;;;;;5121015;28;20210;-66
2023/08/21 00:18:07;;;;;;;7.97;7.18;;;;;;;;;;5120668;28;20199;-66
2023/08/21 00:20:34;;;;;;;7.90;7.20;;;;;;;;;;5120272;28;20509;-66
2023/08/21 00:23:02;;;;;;;7.90;7.30;;;;;;;;;;5120273;28;20364;-66
2023/08/21 00:25:30;;;;;;;8.10;7.50;;;;;;;;;;5119758;28;20203;-66
2023/08/21 00:27:57;;;;;;;7.78;7.18;;;;;;;;;;5120487;28;20210;-66
2023/08/21 00:30:25;;;;;;;7.65;7.05;;;;;;;;;;5120577;28;20225;-66
2023/08/21 00:32:54;;;;;;;7.13;6.53;;;;;;;;;;5120497;28;20293;-66
2023/08/21 00:35:22;;;;;;;8.02;7.38;;;;;;;;;;5119642;28;20234;-66
2023/08/21 00:37:49;;;;;;;7.25;6.75;;;;;;;;;;5119956;28;20211;-66
2023/08/21 00:40:17;;;;;;;7.28;6.75;;;;;;;;;;5119945;28;20291;-66
2023/08/21 00:42:45;;;;;;;7.22;6.63;;;;;;;;;;5120263;28;20211;-66
2023/08/21 00:45:12;;;;;;;7.55;6.95;;;;;;;;;;5120466;28;20203;-66
2023/08/21 00:47:40;;;;;;;7.20;6.70;;;;;;;;;;5119852;28;20563;-66
2023/08/21 00:50:11;;;;;;;8.13;7.43;;;;;;;;;;5120116;28;20199;-66
2023/08/21 00:52:40;;;;;;;7.80;6.97;;;;;;;;;;5119490;28;20290;-66
2023/08/21 00:55:08;;;;;;;8.20;7.03;;;;;;;;;;5119743;28;20255;-66
2023/08/21 00:57:37;;;;;;;7.63;7.03;;;;;;;;;;5120120;28;20203;-65
2023/08/21 01:00:07;;;;;;;8.07;7.43;;;;;;;;;;5119537;28;20310;-66
2023/08/21 01:02:35;;;;;;;8.23;7.53;;;;;;;;;;5119913;28;20203;-65
2023/08/21 01:05:04;;;;;;;7.35;6.75;;;;;;;;;;5119752;28;20207;-65
2023/08/21 01:07:36;;;;;;;7.50;6.90;;;;;;;;;;5119671;28;20341;-65
2023/08/21 01:10:07;;;;;;;7.57;6.85;;;;;;;;;;5118919;28;20199;-66
2023/08/21 01:12:37;;;;;;;6.93;6.45;;;;;;;;;;5118776;28;20198;-66
2023/08/21 01:15:06;;;;;;;7.30;6.60;;;;;;;;;;5119093;28;20210;-67
2023/08/21 01:17:35;;;;;;;7.32;6.60;;;;;;;;;;5119100;28;20267;-66
2023/08/21 01:20:03;;;;;;;7.03;6.43;;;;;;;;;;5119290;28;20311;-66
2023/08/21 01:22:39;;;;;;;7.65;7.15;;;;;;;;;;5119518;28;20454;-65
2023/08/21 01:25:09;;;;;;;7.65;7.15;;;;;;;;;;5119631;28;20229;-65
2023/08/21 01:27:37;;;;;;;7.82;7.05;;;;;;;;;;5119632;28;20249;-66
2023/08/21 01:30:06;;;;;;;7.30;6.80;;;;;;;;;;5119298;28;20199;-66
2023/08/21 01:32:37;;;;;;;7.78;7.07;;;;;;;;;;5119633;28;20542;-66
2023/08/21 01:35:06;;;;;;;7.00;6.47;;;;;;;;;;5119032;28;20230;-66
2023/08/21 01:37:34;;;;;;;7.30;6.68;;;;;;;;;;5118959;28;20474;-65
2023/08/21 01:40:01;;;;;;;6.95;6.45;;;;;;;;;;5118946;28;20234;-66
2023/08/21 01:42:31;;;;;;;6.90;6.30;;;;;;;;;;5119117;28;20268;-65
2023/08/21 01:44:58;;;;;;;6.85;6.35;;;;;;;;;;5118363;28;20213;-66
2023/08/21 01:47:26;;;;;;;6.80;6.22;;;;;;;;;;5119165;28;20301;-65
2023/08/21 01:49:54;;;;;;;6.35;5.85;;;;;;;;;;5118759;28;20200;-66
2023/08/21 01:52:21;;;;;;;6.70;6.20;;;;;;;;;;5118848;28;20209;-66
2023/08/21 01:54:49;;;;;;;6.53;6.03;;;;;;;;;;5118706;28;20203;-65
2023/08/21 01:57:17;;;;;;;7.57;5.95;;;;;;;;;;5118564;28;20543;-65
2023/08/21 01:59:46;;;;;;;6.57;6.07;;;;;;;;;;5118701;28;20227;-66
2023/08/21 02:02:13;;;;;;;6.45;5.95;;;;;;;;;;5118864;28;20195;-66
2023/08/21 02:04:41;;;;;;;7.15;6.63;;;;;;;;;;5118762;28;20295;-66
2023/08/21 02:07:09;;;;;;;7.13;6.53;;;;;;;;;;5118439;28;20210;-66
2023/08/21 02:09:36;;;;;;;6.82;6.32;;;;;;;;;;5118544;28;20206;-66
2023/08/21 02:12:04;;;;;;;7.90;7.20;;;;;;;;;;5118331;28;20218;-66
2023/08/21 02:14:32;;;;;;;6.78;6.28;;;;;;;;;;5118884;28;20256;-66
2023/08/21 02:17:02;;;;;;;7.32;6.82;;;;;;;;;;5118054;28;20206;-66
2023/08/21 02:19:29;;;;;;;7.15;6.65;;;;;;;;;;5118064;28;20210;-66
2023/08/21 02:21:57;;;;;;;7.05;6.45;;;;;;;;;;5117797;28;20203;-66
2023/08/21 02:24:25;;;;;;;7.63;7.00;;;;;;;;;;5118457;28;20211;-66
2023/08/21 02:26:52;;;;;;;7.55;6.97;;;;;;;;;;5118096;28;20203;-66
2023/08/21 02:29:20;;;;;;;6.65;6.20;;;;;;;;;;5118593;28;20206;-66
2023/08/21 02:31:48;;;;;;;6.63;6.22;;;;;;;;;;5118209;28;20203;-66
2023/08/21 02:34:17;;;;;;;6.10;5.70;;;;;;;;;;5118160;28;20603;-66
2023/08/21 02:36:44;;;;;;;7.05;6.40;;;;;;;;;;5118012;28;20756;-66
2023/08/21 02:39:12;;;;;;;6.82;6.25;;;;;;;;;;5118367;28;20202;-67
2023/08/21 02:41:40;;;;;;;6.90;6.30;;;;;;;;;;5117794;28;20253;-66
2023/08/21 02:44:07;;;;;;;7.13;6.57;;;;;;;;;;5118139;28;20218;-66
2023/08/21 02:46:36;;;;;;;7.00;6.40;;;;;;;;;;5117822;28;20549;-66
2023/08/21 02:49:03;;;;;;;7.07;6.57;;;;;;;;;;5118792;28;20225;-66
2023/08/21 02:51:32;;;;;;;6.85;6.25;;;;;;;;;;5117675;28;20203;-66
2023/08/21 02:54:00;;;;;;;6.55;6.13;;;;;;;;;;5117760;28;20211;-66
2023/08/21 02:56:27;;;;;;;6.75;6.10;;;;;;;;;;5117696;28;20209;-66
2023/08/21 02:58:55;;;;;;;6.00;5.60;;;;;;;;;;5118592;28;20229;-66
2023/08/21 03:01:23;;;;;;;6.50;6.00;;;;;;;;;;5117707;28;20304;-66
2023/08/21 03:03:51;;;;;;;6.10;5.70;;;;;;;;;;5117717;28;20888;-67
2023/08/21 03:06:18;;;;;;;6.45;5.95;;;;;;;;;;5117748;28;20567;-66
2023/08/21 03:08:47;;;;;;;7.10;6.45;;;;;;;;;;5117915;28;20333;-66
2023/08/21 03:11:15;;;;;;;8.00;6.57;;;;;;;;;;5118070;28;20592;-66
2023/08/21 03:13:43;;;;;;;6.70;6.20;;;;;;;;;;5118064;28;20203;-66
2023/08/21 03:16:10;;;;;;;6.47;6.07;;;;;;;;;;5117713;28;20203;-66
2023/08/21 03:18:55;;;;;;;5.97;5.50;;;;;;;;;;5117423;28;20260;-66
2023/08/21 03:21:23;;;;;;;6.32;5.82;;;;;;;;;;5117724;28;20256;-66
2023/08/21 03:23:53;;;;;;;6.18;5.78;;;;;;;;;;5117375;28;20222;-66
2023/08/21 03:26:21;;;;;;;6.63;6.03;;;;;;;;;;5117680;28;20214;-66
2023/08/21 03:28:49;;;;;;;7.10;6.50;;;;;;;;;;5117494;28;20203;-67
2023/08/21 03:31:17;;;;;;;6.97;6.43;;;;;;;;;;5116625;28;20206;-66
2023/08/21 03:33:45;;;;;;;6.65;6.25;;;;;;;;;;5117561;28;20636;-66
2023/08/21 03:36:12;;;;;;;7.00;6.50;;;;;;;;;;5121293;28;20241;-66
2023/08/21 03:38:40;;;;;;;6.22;5.72;;;;;;;;;;5121491;28;20242;-66
2023/08/21 03:41:09;;;;;;;6.43;6.00;;;;;;;;;;5121536;28;20238;-67
2023/08/21 03:43:37;;;;;;;5.97;5.57;;;;;;;;;;5121059;28;20241;-66
2023/08/21 03:46:04;;;;;;;6.47;5.97;;;;;;;;;;5121210;28;20273;-67
2023/08/21 03:48:32;;;;;;;6.13;5.72;;;;;;;;;;5121270;28;20211;-67
2023/08/21 03:51:00;;;;;;;6.43;5.97;;;;;;;;;;5121266;28;20222;-66
2023/08/21 03:53:27;;;;;;;5.90;5.43;;;;;;;;;;5120962;28;20232;-66
2023/08/21 03:55:55;;;;;;;5.65;5.25;;;;;;;;;;5120370;28;20210;-66
2023/08/21 03:58:26;;;;;;;6.10;5.47;;;;;;;;;;5120509;28;20479;-66
2023/08/21 04:00:53;;;;;;;6.18;5.30;;;;;;;;;;5120723;28;20310;-66
2023/08/21 04:03:21;;;;;;;5.75;5.35;;;;;;;;;;5120916;28;20245;-66
2023/08/21 04:05:48;;;;;;;5.93;5.53;;;;;;;;;;5119782;28;20195;-66
2023/08/21 04:08:15;;;;;;;6.00;5.60;;;;;;;;;;5120489;28;20203;-66
2023/08/21 04:10:43;;;;;;;5.80;5.40;;;;;;;;;;5120130;28;20198;-66
2023/08/21 04:13:10;;;;;;;5.70;5.30;;;;;;;;;;5120076;28;20590;-66
2023/08/21 04:15:39;;;;;;;5.80;5.40;;;;;;;;;;5120061;28;20203;-66
2023/08/21 04:18:07;;;;;;;5.53;5.10;;;;;;;;;;5120044;28;20297;-66
2023/08/21 04:20:35;;;;;;;6.00;5.43;;;;;;;;;;5119926;28;20223;-66
2023/08/21 04:23:02;;;;;;;5.65;5.15;;;;;;;;;;5119658;28;20483;-66
2023/08/21 04:25:29;;;;;;;6.10;5.65;;;;;;;;;;5119776;28;20218;-66
2023/08/21 04:27:56;;;;;;;6.57;6.07;;;;;;;;;;5119139;28;20203;-66
2023/08/21 04:30:24;;;;;;;6.53;6.03;;;;;;;;;;5119424;28;20199;-66
2023/08/21 04:32:53;;;;;;;5.47;5.07;;;;;;;;;;5119652;28;20203;-66
2023/08/21 04:35:21;;;;;;;5.53;5.13;;;;;;;;;;5119183;28;20522;-66
2023/08/21 04:37:49;;;;;;;5.80;5.30;;;;;;;;;;5119365;28;20210;-66
2023/08/21 04:40:17;;;;;;;5.43;5.13;;;;;;;;;;5119337;28;20582;-66
2023/08/21 04:42:44;;;;;;;6.00;5.47;;;;;;;;;;5119189;28;20602;-66
2023/08/21 04:45:12;;;;;;;5.40;5.05;;;;;;;;;;5119015;28;20709;-66
2023/08/21 04:47:39;;;;;;;5.43;5.10;;;;;;;;;;5119484;28;20242;-66
2023/08/21 04:50:08;;;;;;;5.80;5.40;;;;;;;;;;5118812;28;20210;-65
2023/08/21 04:52:35;;;;;;;5.57;5.18;;;;;;;;;;5118876;28;20203;-65
2023/08/21 04:55:03;;;;;;;5.57;5.03;;;;;;;;;;5118686;28;20210;-66
2023/08/21 04:57:30;;;;;;;5.47;5.00;;;;;;;;;;5118282;28;20272;-65
2023/08/21 04:59:57;;;;;;;5.65;5.28;;;;;;;;;;5119143;28;20226;-66
2023/08/21 05:02:25;;;;;;;6.40;5.90;;;;;;;;;;5117766;28;20227;-65
2023/08/21 05:04:52;;;;;;;5.82;5.43;;;;;;;;;;5117792;28;20214;-65
2023/08/21 05:07:20;;;;;;;6.20;5.70;;;;;;;;;;5117677;28;20203;-65
2023/08/21 05:09:48;;;;;;;6.00;5.60;;;;;;;;;;5117393;28;20536;-65
2023/08/21 05:12:15;;;;;;;6.15;5.70;;;;;;;;;;5116748;28;20195;-66
2023/08/21 05:14:42;;;;;;;6.05;5.60;;;;;;;;;;5116923;28;20791;-66
2023/08/21 05:17:10;;;;;;;5.90;5.43;;;;;;;;;;5116881;28;20527;-65
2023/08/21 05:19:37;;;;;;;5.78;5.38;;;;;;;;;;5117173;28;20207;-65
2023/08/21 05:22:04;;;;;;;5.60;5.20;;;;;;;;;;5116199;28;20233;-66
2023/08/21 05:24:34;;;;;;;6.03;5.63;;;;;;;;;;5116347;28;20212;-65
2023/08/21 05:27:01;;;;;;;6.30;5.80;;;;;;;;;;5117033;28;20521;-66
2023/08/21 05:29:28;;;;;;;6.68;6.18;;;;;;;;;;5116688;28;20195;-66
2023/08/21 05:31:55;;;;;;;6.22;5.82;;;;;;;;;;5116044;28;20210;-66
2023/08/21 05:34:25;;;;;;;8.70;7.82;;;;;;;;;;5115967;28;20206;-66
2023/08/21 05:36:54;;;;;;;16.63;11.77;;;;;;;;;;5114273;28;20235;-66
2023/08/21 05:39:21;;;;;;;16.42;12.23;;;;;;;;;;5115166;28;20257;-66
2023/08/21 05:41:52;;;;;;;15.82;11.93;;;;;;;;;;5113801;28;20561;-66
2023/08/21 05:44:19;;;;;;;20.88;13.70;;;;;;;;;;5114901;28;20290;-65
2023/08/21 05:46:47;;;;;;;16.73;12.23;;;;;;;;;;5115033;28;20203;-66
2023/08/21 05:49:14;;;;;;;15.15;12.00;;;;;;;;;;5114540;28;20217;-66
2023/08/21 05:51:41;;;;;;;18.13;11.85;;;;;;;;;;5114589;28;20203;-65
2023/08/21 05:54:08;;;;;;;15.95;11.40;;;;;;;;;;5115160;28;20210;-65
2023/08/21 05:56:36;;;;;;;14.48;11.57;;;;;;;;;;5114963;28;20609;-65
2023/08/21 05:59:04;;;;;;;14.73;11.45;;;;;;;;;;5115602;28;20203;-66
2023/08/21 06:01:32;;;;;;;13.60;11.00;;;;;;;;;;5114748;28;20226;-66
2023/08/21 06:03:59;;;;;;;14.98;10.90;;;;;;;;;;5116104;28;20198;-66
2023/08/21 06:06:26;;;;;;;12.60;10.70;;;;;;;;;;5115782;28;20199;-66
2023/08/21 06:08:54;;;;;;;11.50;9.90;;;;;;;;;;5116154;28;20628;-66
2023/08/21 06:11:21;;;;;;;10.93;9.88;;;;;;;;;;5116266;28;20210;-66
2023/08/21 06:13:49;;;;;;;10.60;9.60;;;;;;;;;;5115969;28;20207;-66
2023/08/21 06:16:18;;;;;;;11.23;10.13;;;;;;;;;;5115801;28;20194;-66
2023/08/21 06:18:46;;;;;;;13.05;9.57;;;;;;;;;;5116253;28;20226;-66
2023/08/21 06:21:13;;;;;;;10.57;9.48;;;;;;;;;;5115694;28;20233;-66
2023/08/21 06:23:40;;;;;;;11.27;10.05;;;;;;;;;;5116037;28;20593;-66
2023/08/21 06:26:08;;;;;;;9.70;8.77;;;;;;;;;;5117531;28;20202;-67
2023/08/21 06:28:35;;;;;;;9.98;9.10;;;;;;;;;;5116166;28;20469;-66
2023/08/21 06:31:03;;;;;;;10.45;9.45;;;;;;;;;;5115455;28;20226;-66
2023/08/21 06:33:31;;;;;;;10.70;9.68;;;;;;;;;;5115718;28;20203;-65
2023/08/21 06:35:59;;;;;;;10.15;9.35;;;;;;;;;;5115995;28;20226;-65
2023/08/21 06:38:26;;;;;;;9.85;8.95;;;;;;;;;;5114271;28;20210;-66
2023/08/21 06:40:53;;;;;;;10.80;9.20;;;;;;;;;;5115564;28;20198;-65
2023/08/21 06:43:21;;;;;;;10.68;9.65;;;;;;;;;;5115483;28;20698;-65
2023/08/21 06:45:49;;;;;;;10.60;9.60;;;;;;;;;;5115552;28;20203;-65
2023/08/21 06:48:16;;;;;;;9.73;8.82;;;;;;;;;;5114675;28;20624;-65
2023/08/21 06:50:44;;;;;;;9.93;9.13;;;;;;;;;;5114652;28;20211;-65
2023/08/21 06:53:12;;;;;;;9.60;8.80;;;;;;;;;;5115396;28;20221;-66
2023/08/21 06:55:40;;;;;;;9.95;9.15;;;;;;;;;;5115063;28;20217;-67
2023/08/21 06:58:07;;;;;;;9.48;8.68;;;;;;;;;;5115419;28;20257;-66
2023/08/21 07:00:35;;;;;;;9.30;8.50;;;;;;;;;;5114783;28;20264;-66
2023/08/21 07:03:03;;;;;;;10.10;9.27;;;;;;;;;;5114621;28;20223;-66
2023/08/21 07:05:30;;;;;;;10.20;9.23;;;;;;;;;;5114999;28;20224;-66
2023/08/21 07:07:59;;;;;;;9.57;8.80;;;;;;;;;;5115334;28;20199;-66
2023/08/21 07:10:26;;;;;;;10.05;9.25;;;;;;;;;;5118893;28;20214;-66
2023/08/21 07:12:54;;;;;;;10.35;9.55;;;;;;;;;;5119046;28;20203;-67
2023/08/21 07:15:22;;;;;;;9.90;9.10;;;;;;;;;;5119045;28;20229;-66
2023/08/21 07:17:50;;;;;;;9.68;8.98;;;;;;;;;;5120037;28;20199;-66
2023/08/21 07:20:17;;;;;;;9.63;8.93;;;;;;;;;;5119718;28;20210;-65
2023/08/21 07:22:45;;;;;;;10.18;9.27;;;;;;;;;;5119081;28;20238;-66
2023/08/21 07:25:13;;;;;;;10.32;9.52;;;;;;;;;;5119691;28;20527;-65
2023/08/21 07:27:41;;;;;;;9.50;8.80;;;;;;;;;;5119848;28;20268;-66
2023/08/21 07:30:09;;;;;;;9.77;9.07;;;;;;;;;;5118899;28;20202;-66
2023/08/21 07:32:36;;;;;;;9.63;8.93;;;;;;;;;;5119325;28;20242;-65
2023/08/21 07:35:03;;;;;;;9.52;8.73;;;;;;;;;;5119533;28;20209;-65
2023/08/21 07:37:31;;;;;;;9.77;9.05;;;;;;;;;;5118612;28;20241;-67
2023/08/21 07:39:58;;;;;;;9.32;8.68;;;;;;;;;;5119117;28;20206;-66
2023/08/21 07:42:27;;;;;;;9.73;9.02;;;;;;;;;;5117968;28;20229;-65
2023/08/21 07:44:54;;;;;;;9.43;8.63;;;;;;;;;;5118225;28;20214;-66
2023/08/21 07:47:22;;;;;;;9.00;8.20;;;;;;;;;;5118187;28;20206;-66
2023/08/21 07:49:49;;;;;;;9.63;8.88;;;;;;;;;;5118595;28;20195;-68
2023/08/21 07:52:17;;;;;;;8.85;8.15;;;;;;;;;;5118966;28;20290;-65
2023/08/21 07:54:44;;;;;;;9.43;8.73;;;;;;;;;;5118605;28;20287;-66
2023/08/21 07:57:11;;;;;;;9.80;9.00;;;;;;;;;;5118901;28;20218;-66
2023/08/21 07:59:40;;;;;;;9.60;8.80;;;;;;;;;;5118520;28;20590;-66
2023/08/21 08:02:08;;;;;;;9.27;8.60;;;;;;;;;;5118090;28;20245;-65
2023/08/21 08:04:35;;;;;;;9.48;8.68;;;;;;;;;;5118019;28;20207;-65
2023/08/21 08:07:02;;;;;;;9.35;8.65;;;;;;;;;;5118686;28;20202;-65
2023/08/21 08:09:30;;;;;;;9.10;8.40;;;;;;;;;;5118256;28;20717;-66
2023/08/21 08:11:57;;;;;;;10.07;9.38;;;;;;;;;;5117719;28;20238;-66
2023/08/21 08:14:25;;;;;;;9.02;8.43;;;;;;;;;;5117899;28;20783;-66
2023/08/21 08:16:53;;;;;;;9.52;8.73;;;;;;;;;;5117863;28;20260;-66
2023/08/21 08:19:21;;;;;;;9.02;8.35;;;;;;;;;;5118042;28;20206;-66
2023/08/21 08:21:48;;;;;;;8.52;7.93;;;;;;;;;;5117853;28;20504;-66
2023/08/21 08:24:15;;;;;;;10.30;9.40;;;;;;;;;;5117639;28;20331;-66
2023/08/21 08:26:43;;;;;;;9.48;8.77;;;;;;;;;;5117034;28;20207;-67
2023/08/21 08:29:10;;;;;;;9.25;8.55;;;;;;;;;;5118136;28;20602;-66
2023/08/21 08:31:39;;;;;;;8.85;8.15;;;;;;;;;;5117146;28;20199;-67
2023/08/21 08:34:07;;;;;;;8.68;8.02;;;;;;;;;;5116322;28;20308;-69
2023/08/21 08:36:35;;;;;;;9.43;8.73;;;;;;;;;;5116808;28;20237;-66
2023/08/21 08:39:02;;;;;;;8.68;8.00;;;;;;;;;;5117514;28;20210;-67
2023/08/21 08:41:32;;;;;;;9.18;8.48;;;;;;;;;;5117208;28;20199;-66
2023/08/21 08:43:59;;;;;;;9.15;8.45;;;;;;;;;;5117735;28;20280;-66
2023/08/21 08:46:27;;;;;;;9.32;8.63;;;;;;;;;;5116310;28;20455;-65
2023/08/21 08:48:54;;;;;;;9.35;8.55;;;;;;;;;;5114918;28;20231;-66
2023/08/21 08:51:24;;;;;;;9.00;8.40;;;;;;;;;;5116069;28;20769;-66
2023/08/21 08:53:51;;;;;;;9.88;9.07;;;;;;;;;;5116811;28;20199;-66
2023/08/21 08:56:19;;;;;;;10.23;9.52;;;;;;;;;;5117006;28;20497;-66
2023/08/21 08:58:46;;;;;;;10.30;9.50;;;;;;;;;;5116735;28;20210;-66
2023/08/21 09:01:13;;;;;;;10.43;9.65;;;;;;;;;;5116623;28;20781;-65
2023/08/21 09:03:41;;;;;;;9.88;9.10;;;;;;;;;;5116967;28;20225;-66
2023/08/21 09:06:08;;;;;;;10.10;9.40;;;;;;;;;;5115517;28;20210;-66
2023/08/21 09:08:37;;;;;;;10.02;9.10;;;;;;;;;;5116069;28;20195;-66
2023/08/21 09:11:04;;;;;;;10.00;9.18;;;;;;;;;;5116229;28;20203;-66
2023/08/21 09:13:32;;;;;;;9.98;9.27;;;;;;;;;;5116365;28;20211;-66
2023/08/21 09:16:00;;;;;;;10.48;9.68;;;;;;;;;;5117487;28;20213;-66
2023/08/21 09:18:27;;;;;;;10.75;9.95;;;;;;;;;;5121196;27;20226;-66
2023/08/21 09:20:55;;;;;;;11.02;10.23;;;;;;;;;;5118238;27;20234;-66
2023/08/21 09:23:22;;;;;;;10.43;9.63;;;;;;;;;;5116277;28;20223;-66
2023/08/21 09:25:51;;;;;;;10.45;9.65;;;;;;;;;;5116246;28;20207;-66
2023/08/21 09:28:21;;;;;;;11.00;10.20;;;;;;;;;;5116579;28;20203;-66
2023/08/21 09:30:49;;;;;;;10.80;9.82;;;;;;;;;;5116127;28;20586;-66
2023/08/21 09:33:18;;;;;;;10.63;9.80;;;;;;;;;;5114912;28;20198;-66
2023/08/21 09:35:46;;;;;;;11.35;10.55;;;;;;;;;;5116220;28;20346;-67
2023/08/21 09:38:14;;;;;;;10.70;9.90;;;;;;;;;;5116800;28;20677;-67
2023/08/21 09:40:42;;;;;;;11.15;10.35;;;;;;;;;;5116049;27;20201;-67
2023/08/21 09:43:12;;;;;;;11.07;10.38;;;;;;;;;;5115965;28;20215;-67
2023/08/21 09:45:39;;;;;;;11.02;10.13;;;;;;;;;;5115330;28;20854;-66
2023/08/21 09:48:07;;;;;;;11.32;10.43;;;;;;;;;;5115521;28;20211;-66
2023/08/21 09:50:35;;;;;;;11.18;10.38;;;;;;;;;;5116264;28;20207;-67
2023/08/21 09:53:03;;;;;;;10.82;10.02;;;;;;;;;;5116673;28;20698;-67
2023/08/21 09:55:32;;;;;;;11.00;10.15;;;;;;;;;;5115623;28;20582;-66
2023/08/21 09:58:01;;;;;;;11.38;10.57;;;;;;;;;;5115526;28;20203;-66
2023/08/21 10:00:30;;;;;;;11.80;10.90;;;;;;;;;;5115423;28;20199;-66
2023/08/21 10:03:01;;;;;;;10.93;10.02;;;;;;;;;;5115781;28;20229;-66
2023/08/21 10:05:28;;;;;;;10.88;10.05;;;;;;;;;;5114326;22;20259;-67
2023/08/21 10:07:57;;;;;;;10.32;9.63;;;;;;;;;;5074677;28;20204;-67
2023/08/21 10:10:25;;;;;;;10.20;9.50;;;;;;;;;;5074966;28;20230;-66
2023/08/21 10:12:52;;;;;;;10.00;9.30;;;;;;;;;;5074158;28;20231;-66
2023/08/21 10:15:19;;;;;;;11.15;10.25;;;;;;;;;;5074242;28;20211;-66
2023/08/21 10:17:48;;;;;;;9.98;9.18;;;;;;;;;;5073979;28;20212;-67
2023/08/21 10:20:22;;;;;;;10.57;9.77;;;;;;;;;;5073669;28;20493;-67
2023/08/21 10:22:50;;;;;;;9.90;9.20;;;;;;;;;;5073722;28;20371;-67
2023/08/21 10:25:20;;;;;;;10.23;9.43;;;;;;;;;;5073621;28;20204;-67
2023/08/21 10:27:48;;;;;;;9.43;8.80;;;;;;;;;;5074177;28;20207;-67
2023/08/21 10:30:16;;;;;;;9.57;8.88;;;;;;;;;;5073987;28;20232;-66
2023/08/21 10:32:49;;;;;;;9.82;9.00;;;;;;;;;;5074408;28;20193;-67
2023/08/21 10:35:17;;;;;;;10.05;9.25;;;;;;;;;;5073729;28;20614;-67
2023/08/21 10:38:03;;;;;;;10.18;9.18;;;;;;;;;;5074007;28;20223;-67
2023/08/21 10:40:30;;;;;;;9.75;9.05;;;;;;;;;;5073786;28;20242;-67
2023/08/21 10:42:58;;;;;;;9.50;8.80;;;;;;;;;;5075012;28;20224;-67
2023/08/21 10:45:25;;;;;;;9.88;9.18;;;;;;;;;;5081060;28;20234;-66
2023/08/21 10:47:54;;;;;;;10.02;9.32;;;;;;;;;;5080774;28;20209;-66
2023/08/21 10:50:22;;;;;;;9.57;8.77;;;;;;;;;;5080550;28;20218;-66
2023/08/21 10:52:51;;;;;;;9.48;8.77;;;;;;;;;;5079759;28;20218;-68
2023/08/21 10:55:19;;;;;;;9.30;8.63;;;;;;;;;;5080340;28;20204;-67
2023/08/21 10:57:48;;;;;;;9.13;8.38;;;;;;;;;;5080957;28;20228;-67
2023/08/21 11:00:16;;;;;;;9.57;8.85;;;;;;;;;;5081002;28;20204;-67
2023/08/21 11:02:44;;;;;;;9.38;8.65;;;;;;;;;;5080443;28;20231;-66
2023/08/21 11:05:13;;;;;;;9.57;8.77;;;;;;;;;;5080824;28;20239;-66
2023/08/21 11:07:43;;;;;;;9.20;8.50;;;;;;;;;;5080678;28;20211;-67
2023/08/21 11:10:13;;;;;;;9.77;8.98;;;;;;;;;;5081298;28;20210;-67
2023/08/21 11:12:40;;;;;;;9.48;8.77;;;;;;;;;;5081091;28;20592;-67
2023/08/21 11:15:08;;;;;;;8.98;8.27;;;;;;;;;;5080850;28;20204;-67
2023/08/21 11:17:35;;;;;;;8.82;8.23;;;;;;;;;;5080454;28;20211;-67
2023/08/21 11:20:04;;;;;;;9.60;8.90;;;;;;;;;;5080104;28;20737;-67
2023/08/21 11:22:33;;;;;;;9.07;8.38;;;;;;;;;;5080498;28;20235;-67
2023/08/21 11:25:01;;;;;;;9.50;8.68;;;;;;;;;;5080324;28;20215;-67
2023/08/21 11:27:28;;;;;;;9.20;8.60;;;;;;;;;;5080628;28;20204;-66
2023/08/21 11:29:56;;;;;;;9.13;8.32;;;;;;;;;;5080074;28;20205;-67
2023/08/21 11:32:24;;;;;;;9.45;8.75;;;;;;;;;;5079592;28;20215;-66
2023/08/21 11:34:52;;;;;;;8.60;8.00;;;;;;;;;;5080551;28;20215;-66
2023/08/21 11:37:20;;;;;;;9.55;8.85;;;;;;;;;;5079979;28;20212;-67
2023/08/21 11:39:49;;;;;;;9.07;8.48;;;;;;;;;;5079284;28;20478;-67
2023/08/21 11:42:17;;;;;;;9.27;8.55;;;;;;;;;;5079548;28;20708;-67
2023/08/21 11:44:45;;;;;;;9.05;8.35;;;;;;;;;;5079410;28;20207;-66
2023/08/21 11:47:13;;;;;;;8.98;8.27;;;;;;;;;;5079405;28;20208;-66
2023/08/21 11:49:42;;;;;;;8.90;8.20;;;;;;;;;;5080228;28;20267;-67
2023/08/21 11:52:09;;;;;;;8.95;8.30;;;;;;;;;;5079160;28;20235;-66
2023/08/21 11:54:37;;;;;;;8.98;8.27;;;;;;;;;;5077792;28;20208;-67
2023/08/21 11:57:09;;;;;;;8.25;7.65;;;;;;;;;;5076798;28;20200;-67
2023/08/21 11:59:37;;;;;;;8.57;7.97;;;;;;;;;;5077182;28;20215;-67
2023/08/21 12:02:11;;;;;;;8.45;7.85;;;;;;;;;;5076497;28;20254;-66
2023/08/21 12:04:38;;;;;;;8.05;7.45;;;;;;;;;;5075399;28;20220;-67
2023/08/21 12:07:06;;;;;;;8.77;8.10;;;;;;;;;;5075664;28;20290;-66
2023/08/21 12:09:33;;;;;;;8.10;7.50;;;;;;;;;;5076599;28;20290;-67
2023/08/21 12:12:00;;;;;;;7.85;7.35;;;;;;;;;;5077378;28;20204;-67
2023/08/21 12:14:30;;;;;;;8.77;8.07;;;;;;;;;;5076842;28;20208;-67
2023/08/21 12:16:57;;;;;;;8.07;7.47;;;;;;;;;;5076193;28;20490;-67
2023/08/21 12:19:25;;;;;;;8.38;7.78;;;;;;;;;;5076182;28;20200;-67
2023/08/21 12:21:52;;;;;;;8.55;7.85;;;;;;;;;;5076346;28;20196;-67
2023/08/21 12:24:20;;;;;;;8.23;7.63;;;;;;;;;;5076620;28;20259;-66
2023/08/21 12:26:47;;;;;;;8.43;7.80;;;;;;;;;;5076621;28;20205;-67
2023/08/21 12:29:14;;;;;;;8.45;7.80;;;;;;;;;;5076301;28;20239;-67
2023/08/21 12:31:43;;;;;;;7.43;6.93;;;;;;;;;;5076258;28;20223;-66
2023/08/21 12:34:10;;;;;;;7.85;7.25;;;;;;;;;;5076629;28;20196;-66
2023/08/21 12:36:38;;;;;;;7.55;6.97;;;;;;;;;;5075655;28;20215;-67
2023/08/21 12:39:05;;;;;;;7.57;6.97;;;;;;;;;;5076249;28;20200;-67
2023/08/21 12:41:33;;;;;;;7.88;7.28;;;;;;;;;;5075093;28;20504;-66
2023/08/21 12:44:01;;;;;;;7.88;7.28;;;;;;;;;;5075782;28;20259;-67
2023/08/21 12:46:29;;;;;;;8.18;7.50;;;;;;;;;;5076745;28;20216;-66
2023/08/21 12:48:59;;;;;;;7.60;7.03;;;;;;;;;;5076064;28;20200;-67
2023/08/21 12:51:26;;;;;;;8.02;7.38;;;;;;;;;;5075980;28;20200;-67
2023/08/21 12:53:53;;;;;;;7.80;7.13;;;;;;;;;;5075737;28;20606;-67
2023/08/21 12:56:21;;;;;;;7.75;7.15;;;;;;;;;;5076237;28;20204;-67
2023/08/21 12:58:48;;;;;;;7.47;6.97;;;;;;;;;;5076060;28;20204;-67
2023/08/21 13:01:16;;;;;;;7.97;7.38;;;;;;;;;;5075600;28;20196;-67
2023/08/21 13:03:45;;;;;;;7.65;7.05;;;;;;;;;;5074632;28;20228;-67
2023/08/21 13:06:14;;;;;;;7.90;7.30;;;;;;;;;;5074904;28;20267;-67
2023/08/21 13:08:42;;;;;;;7.68;7.07;;;;;;;;;;5075786;28;20204;-67
2023/08/21 13:11:09;;;;;;;7.18;6.68;;;;;;;;;;5075043;28;20215;-67
2023/08/21 13:13:37;;;;;;;7.45;6.82;;;;;;;;;;5076109;28;20205;-67
2023/08/21 13:16:04;;;;;;;7.43;6.90;;;;;;;;;;5075557;28;20219;-66
2023/08/21 13:18:32;;;;;;;7.43;6.93;;;;;;;;;;5074662;28;20204;-67
2023/08/21 13:20:59;;;;;;;7.47;6.90;;;;;;;;;;5075049;28;20204;-67
2023/08/21 13:23:30;;;;;;;7.25;6.75;;;;;;;;;;5074801;28;20263;-67
2023/08/21 13:25:58;;;;;;;7.60;7.00;;;;;;;;;;5073858;28;20204;-67
2023/08/21 13:28:25;;;;;;;7.70;7.03;;;;;;;;;;5073024;28;20228;-67
2023/08/21 13:30:53;;;;;;;7.57;7.07;;;;;;;;;;5074787;28;20216;-67
2023/08/21 13:33:21;;;;;;;7.25;6.75;;;;;;;;;;5074380;28;20200;-67
2023/08/21 13:35:48;;;;;;;7.07;6.57;;;;;;;;;;5073740;28;20211;-67
2023/08/21 13:38:15;;;;;;;7.28;6.78;;;;;;;;;;5074041;28;20205;-67
2023/08/21 13:40:44;;;;;;;7.18;6.68;;;;;;;;;;5074930;28;20227;-67
2023/08/21 13:43:12;;;;;;;6.95;6.45;;;;;;;;;;5074618;28;20224;-67
2023/08/21 13:45:40;;;;;;;7.28;6.78;;;;;;;;;;5074801;28;20215;-67
2023/08/21 13:48:08;;;;;;;6.95;6.35;;;;;;;;;;5075075;28;20208;-67
2023/08/21 13:50:35;;;;;;;7.35;6.85;;;;;;;;;;5074961;28;20523;-67
2023/08/21 13:53:02;;;;;;;7.38;6.88;;;;;;;;;;5074873;28;20299;-67
2023/08/21 13:55:30;;;;;;;7.25;6.75;;;;;;;;;;5074894;28;20654;-67
2023/08/21 13:57:58;;;;;;;6.93;6.43;;;;;;;;;;5074815;28;20204;-67
2023/08/21 14:00:26;;;;;;;7.10;6.60;;;;;;;;;;5074762;28;20219;-66
2023/08/21 14:02:53;;;;;;;6.82;6.32;;;;;;;;;;5074495;28;20219;-66
2023/08/21 14:05:21;;;;;;;7.22;6.63;;;;;;;;;;5073936;28;20247;-67
2023/08/21 14:07:48;;;;;;;7.13;6.53;;;;;;;;;;5073378;28;20196;-68
2023/08/21 14:10:16;;;;;;;7.25;6.75;;;;;;;;;;5074053;28;20247;-67
2023/08/21 14:12:43;;;;;;;7.40;6.80;;;;;;;;;;5073971;28;20205;-67
2023/08/21 14:15:12;;;;;;;6.90;6.35;;;;;;;;;;5074552;28;20597;-67
2023/08/21 14:17:40;;;;;;;7.13;6.63;;;;;;;;;;5073947;28;20311;-67
2023/08/21 14:20:08;;;;;;;7.00;6.50;;;;;;;;;;5074099;28;20212;-66
2023/08/21 14:22:35;;;;;;;6.90;6.30;;;;;;;;;;5074043;28;20661;-67
2023/08/21 14:25:05;;;;;;;6.65;6.15;;;;;;;;;;5073088;28;20235;-67
2023/08/21 14:27:32;;;;;;;6.60;6.10;;;;;;;;;;5074133;28;20271;-67
2023/08/21 14:30:00;;;;;;;7.10;6.60;;;;;;;;;;5074251;28;20216;-68
2023/08/21 14:32:28;;;;;;;7.38;6.78;;;;;;;;;;5074350;28;20214;-67
2023/08/21 14:34:56;;;;;;;6.90;6.40;;;;;;;;;;5074232;28;20222;-67
2023/08/21 14:37:23;;;;;;;6.78;6.28;;;;;;;;;;5073401;28;20204;-67
2023/08/21 14:39:51;;;;;;;6.88;6.38;;;;;;;;;;5074100;28;20275;-67
2023/08/21 14:42:18;;;;;;;6.65;6.15;;;;;;;;;;5073880;28;20204;-67